sensor_id;sensor_type;location;lat;lon;timestamp;temperature;humidity
44833;DHT22;30569;51.252;9.830;2023-08-24T00:00:47;15.50;99.90
44833;DHT22;30569;51.252;9.830;2023-08-24T00:03:12;15.50;99.90
44833;DHT22;30569;51.252;9.830;2023-08-24T00:08:06;15.50;99.90
44833;DHT22;30569;51.252;9.830;2023-08-24T00:12:58;15.30;99.90
44833;DHT22;30569;51.252;9.830;2023-08-24T00:15:23;15.30;99.90
44833;DHT22;30569;51.252;9.830;2023-08-24T00:17:49;15.30;99.90
44833;DHT22;30569;51.252;9.830;2023-08-24T00:20:15;15.40;99.90
44833;DHT22;30569;51.252;9.830;2023-08-24T00:22:41;15.10;99.90
44833;DHT22;30569;51.252;9.830;2023-08-24T00:25:07;15.10;99.90
44833;DHT22;30569;51.252;9.830;2023-08-24T00:27:34;15.20;99.90
44833;DHT22;30569;51.252;9.830;2023-08-24T00:30:01;15.20;99.90
44833;DHT22;30569;51.252;9.830;2023-08-24T00:32:27;15.10;99.90
44833;DHT22;30569;51.252;9.830;2023-08-24T00:34:53;15.20;99.90
44833;DHT22;30569;51.252;9.830;2023-08-24T00:37:18;15.20;99.90
44833;DHT22;30569;51.252;9.830;2023-08-24T00:39:44;15.30;99.90
44833;DHT22;30569;51.252;9.830;2023-08-24T00:42:09;15.20;99.90
44833;DHT22;30569;51.252;9.830;2023-08-24T00:44:40;15.20;99.90
44833;DHT22;30569;51.252;9.830;2023-08-24T00:47:06;15.10;99.90
44833;DHT22;30569;51.252;9.830;2023-08-24T00:49:32;15.10;99.90
44833;DHT22;30569;51.252;9.830;2023-08-24T00:51:58;15.10;99.90
44833;DHT22;30569;51.252;9.830;2023-08-24T00:54:23;15.10;99.90
44833;DHT22;30569;51.252;9.830;2023-08-24T00:56:49;15.00;99.90
44833;DHT22;30569;51.252;9.830;2023-08-24T00:59:15;15.00;99.90
44833;DHT22;30569;51.252;9.830;2023-08-24T01:01:41;14.90;99.90
44833;DHT22;30569;51.252;9.830;2023-08-24T01:04:10;14.90;99.90
44833;DHT22;30569;51.252;9.830;2023-08-24T01:06:36;15.00;99.90
44833;DHT22;30569;51.252;9.830;2023-08-24T01:09:02;15.00;99.90
44833;DHT22;30569;51.252;9.830;2023-08-24T01:12:10;14.90;99.90
44833;DHT22;30569;51.252;9.830;2023-08-24T01:14:44;14.90;99.90
44833;DHT22;30569;51.252;9.830;2023-08-24T01:17:14;17.00;99.90
44833;DHT22;30569;51.252;9.830;2023-08-24T01:19:45;14.90;99.90
44833;DHT22;30569;51.252;9.830;2023-08-24T01:27:40;14.90;99.90
44833;DHT22;30569;51.252;9.830;2023-08-24T01:30:06;14.90;99.90
44833;DHT22;30569;51.252;9.830;2023-08-24T01:32:34;14.70;99.90
44833;DHT22;30569;51.252;9.830;2023-08-24T01:35:02;14.70;99.90
44833;DHT22;30569;51.252;9.830;2023-08-24T01:37:29;14.70;99.90
44833;DHT22;30569;51.252;9.830;2023-08-24T01:40:13;14.70;99.90
44833;DHT22;30569;51.252;9.830;2023-08-24T01:42:51;14.60;99.90
44833;DHT22;30569;51.252;9.830;2023-08-24T01:45:18;14.70;99.90
44833;DHT22;30569;51.252;9.830;2023-08-24T01:47:45;14.80;99.90
44833;DHT22;30569;51.252;9.830;2023-08-24T01:50:12;14.70;99.90
44833;DHT22;30569;51.252;9.830;2023-08-24T01:52:38;14.70;99.90
44833;DHT22;30569;51.252;9.830;2023-08-24T01:55:05;14.60;99.90
44833;DHT22;30569;51.252;9.830;2023-08-24T01:57:31;14.60;99.90
44833;DHT22;30569;51.252;9.830;2023-08-24T01:59:56;14.60;99.90
44833;DHT22;30569;51.252;9.830;2023-08-24T02:02:23;14.50;99.90
44833;DHT22;30569;51.252;9.830;2023-08-24T02:04:48;14.60;99.90
44833;DHT22;30569;51.252;9.830;2023-08-24T02:07:14;14.60;99.90
44833;DHT22;30569;51.252;9.830;2023-08-24T02:09:40;14.50;99.90
44833;DHT22;30569;51.252;9.830;2023-08-24T02:12:05;14.40;99.90
44833;DHT22;30569;51.252;9.830;2023-08-24T02:14:31;14.40;99.90
44833;DHT22;30569;51.252;9.830;2023-08-24T02:16:57;14.40;99.90
44833;DHT22;30569;51.252;9.830;2023-08-24T02:19:22;14.40;99.90
44833;DHT22;30569;51.252;9.830;2023-08-24T02:21:48;14.40;99.90
44833;DHT22;30569;51.252;9.830;2023-08-24T02:24:13;14.40;99.90
44833;DHT22;30569;51.252;9.830;2023-08-24T02:26:39;14.40;99.90
44833;DHT22;30569;51.252;9.830;2023-08-24T02:29:04;14.40;99.90
44833;DHT22;30569;51.252;9.830;2023-08-24T02:31:30;14.40;99.90
44833;DHT22;30569;51.252;9.830;2023-08-24T02:33:55;14.40;99.90
44833;DHT22;30569;51.252;9.830;2023-08-24T02:36:21;14.40;99.90
44833;DHT22;30569;51.252;9.830;2023-08-24T02:38:47;14.50;99.90
44833;DHT22;30569;51.252;9.830;2023-08-24T02:41:12;14.50;99.90
44833;DHT22;30569;51.252;9.830;2023-08-24T02:43:40;14.50;99.90
44833;DHT22;30569;51.252;9.830;2023-08-24T02:46:08;14.40;99.90
44833;DHT22;30569;51.252;9.830;2023-08-24T02:48:34;14.40;99.90
44833;DHT22;30569;51.252;9.830;2023-08-24T02:51:01;14.40;99.90
44833;DHT22;30569;51.252;9.830;2023-08-24T02:53:28;14.50;99.90
44833;DHT22;30569;51.252;9.830;2023-08-24T02:55:55;14.50;99.90
44833;DHT22;30569;51.252;9.830;2023-08-24T02:58:21;14.40;99.90
44833;DHT22;30569;51.252;9.830;2023-08-24T03:00:48;14.50;99.90
44833;DHT22;30569;51.252;9.830;2023-08-24T03:03:14;14.40;99.90
44833;DHT22;30569;51.252;9.830;2023-08-24T03:05:40;14.40;99.90
44833;DHT22;30569;51.252;9.830;2023-08-24T03:08:06;14.30;99.90
44833;DHT22;30569;51.252;9.830;2023-08-24T03:10:35;14.30;99.90
44833;DHT22;30569;51.252;9.830;2023-08-24T03:13:00;14.20;99.90
44833;DHT22;30569;51.252;9.830;2023-08-24T03:15:26;14.30;99.90
44833;DHT22;30569;51.252;9.830;2023-08-24T03:17:51;14.40;99.90
44833;DHT22;30569;51.252;9.830;2023-08-24T03:20:18;14.40;99.90
44833;DHT22;30569;51.252;9.830;2023-08-24T03:22:44;14.20;99.90
44833;DHT22;30569;51.252;9.830;2023-08-24T03:25:09;14.30;99.90
44833;DHT22;30569;51.252;9.830;2023-08-24T03:27:35;14.30;99.90
44833;DHT22;30569;51.252;9.830;2023-08-24T03:30:01;14.30;99.90
44833;DHT22;30569;51.252;9.830;2023-08-24T03:32:28;14.30;99.90
44833;DHT22;30569;51.252;9.830;2023-08-24T03:34:58;14.30;99.90
44833;DHT22;30569;51.252;9.830;2023-08-24T03:37:24;14.40;99.90
44833;DHT22;30569;51.252;9.830;2023-08-24T03:39:49;14.50;99.90
44833;DHT22;30569;51.252;9.830;2023-08-24T03:42:15;14.50;99.90
44833;DHT22;30569;51.252;9.830;2023-08-24T03:44:40;14.50;99.90
44833;DHT22;30569;51.252;9.830;2023-08-24T03:47:06;14.50;99.90
44833;DHT22;30569;51.252;9.830;2023-08-24T03:49:32;14.60;99.90
44833;DHT22;30569;51.252;9.830;2023-08-24T03:51:57;14.50;99.90
44833;DHT22;30569;51.252;9.830;2023-08-24T03:54:23;14.50;99.90
44833;DHT22;30569;51.252;9.830;2023-08-24T03:56:48;14.50;99.90
44833;DHT22;30569;51.252;9.830;2023-08-24T03:59:14;14.50;99.90
44833;DHT22;30569;51.252;9.830;2023-08-24T04:01:39;14.50;99.90
44833;DHT22;30569;51.252;9.830;2023-08-24T04:04:05;14.50;99.90
44833;DHT22;30569;51.252;9.830;2023-08-24T04:06:30;14.40;99.90
44833;DHT22;30569;51.252;9.830;2023-08-24T04:08:56;14.30;99.90
44833;DHT22;30569;51.252;9.830;2023-08-24T04:11:21;14.30;99.90
44833;DHT22;30569;51.252;9.830;2023-08-24T04:13:47;14.30;99.90
44833;DHT22;30569;51.252;9.830;2023-08-24T04:16:13;14.30;99.90
44833;DHT22;30569;51.252;9.830;2023-08-24T04:18:38;14.30;99.90
44833;DHT22;30569;51.252;9.830;2023-08-24T04:21:06;14.50;99.90
44833;DHT22;30569;51.252;9.830;2023-08-24T04:23:31;14.40;99.90
44833;DHT22;30569;51.252;9.830;2023-08-24T04:25:57;14.40;99.90
44833;DHT22;30569;51.252;9.830;2023-08-24T04:28:23;14.20;99.90
44833;DHT22;30569;51.252;9.830;2023-08-24T04:30:53;14.20;99.90
44833;DHT22;30569;51.252;9.830;2023-08-24T04:33:19;14.20;99.90
44833;DHT22;30569;51.252;9.830;2023-08-24T04:35:48;14.30;99.90
44833;DHT22;30569;51.252;9.830;2023-08-24T04:38:15;14.30;99.90
44833;DHT22;30569;51.252;9.830;2023-08-24T04:40:51;14.50;99.90
44833;DHT22;30569;51.252;9.830;2023-08-24T04:43:18;14.50;99.90
44833;DHT22;30569;51.252;9.830;2023-08-24T04:45:46;14.50;99.90
44833;DHT22;30569;51.252;9.830;2023-08-24T04:48:12;14.50;99.90
44833;DHT22;30569;51.252;9.830;2023-08-24T04:50:38;14.60;99.90
44833;DHT22;30569;51.252;9.830;2023-08-24T04:53:04;14.60;99.90
44833;DHT22;30569;51.252;9.830;2023-08-24T04:55:29;14.70;99.90
44833;DHT22;30569;51.252;9.830;2023-08-24T04:57:55;14.70;99.90
44833;DHT22;30569;51.252;9.830;2023-08-24T05:00:20;14.70;99.90
44833;DHT22;30569;51.252;9.830;2023-08-24T05:02:46;14.80;99.90
44833;DHT22;30569;51.252;9.830;2023-08-24T05:05:11;14.80;99.90
44833;DHT22;30569;51.252;9.830;2023-08-24T05:07:40;14.80;99.90
44833;DHT22;30569;51.252;9.830;2023-08-24T05:10:06;15.00;99.90
44833;DHT22;30569;51.252;9.830;2023-08-24T05:12:32;15.00;99.90
44833;DHT22;30569;51.252;9.830;2023-08-24T05:15:03;15.10;99.90
44833;DHT22;30569;51.252;9.830;2023-08-24T05:17:29;15.20;99.90
44833;DHT22;30569;51.252;9.830;2023-08-24T05:24:49;15.40;99.90
44833;DHT22;30569;51.252;9.830;2023-08-24T05:34:33;15.80;99.90
44833;DHT22;30569;51.252;9.830;2023-08-24T05:36:59;15.80;99.90
44833;DHT22;30569;51.252;9.830;2023-08-24T05:41:53;16.30;99.90
44833;DHT22;30569;51.252;9.830;2023-08-24T05:44:19;16.40;99.90
44833;DHT22;30569;51.252;9.830;2023-08-24T05:46:46;16.60;99.90
44833;DHT22;30569;51.252;9.830;2023-08-24T05:49:12;16.90;99.90
44833;DHT22;30569;51.252;9.830;2023-08-24T05:51:38;17.30;99.90
44833;DHT22;30569;51.252;9.830;2023-08-24T05:54:04;17.40;99.90
44833;DHT22;30569;51.252;9.830;2023-08-24T05:56:29;17.50;99.90
44833;DHT22;30569;51.252;9.830;2023-08-24T06:01:21;18.10;99.90
44833;DHT22;30569;51.252;9.830;2023-08-24T06:06:13;18.30;99.90
44833;DHT22;30569;51.252;9.830;2023-08-24T06:08:38;19.10;99.90
44833;DHT22;30569;51.252;9.830;2023-08-24T06:11:04;18.80;99.90
44833;DHT22;30569;51.252;9.830;2023-08-24T06:13:29;18.80;99.90
44833;DHT22;30569;51.252;9.830;2023-08-24T06:18:21;19.10;99.90
44833;DHT22;30569;51.252;9.830;2023-08-24T06:20:46;19.30;99.90
44833;DHT22;30569;51.252;9.830;2023-08-24T06:23:15;19.30;99.90
44833;DHT22;30569;51.252;9.830;2023-08-24T06:25:41;21.80;99.90
44833;DHT22;30569;51.252;9.830;2023-08-24T06:28:07;22.60;99.90
44833;DHT22;30569;51.252;9.830;2023-08-24T06:30:37;19.90;99.90
44833;DHT22;30569;51.252;9.830;2023-08-24T06:33:04;20.20;99.90
44833;DHT22;30569;51.252;9.830;2023-08-24T06:35:30;20.90;99.90
44833;DHT22;30569;51.252;9.830;2023-08-24T06:37:56;20.70;99.90
44833;DHT22;30569;51.252;9.830;2023-08-24T06:40:21;20.40;99.90
44833;DHT22;30569;51.252;9.830;2023-08-24T06:42:47;20.50;99.90
44833;DHT22;30569;51.252;9.830;2023-08-24T06:45:12;20.70;99.90
44833;DHT22;30569;51.252;9.830;2023-08-24T06:47:39;21.20;99.90
44833;DHT22;30569;51.252;9.830;2023-08-24T06:50:06;21.00;99.90
44833;DHT22;30569;51.252;9.830;2023-08-24T06:52:31;21.00;99.90
44833;DHT22;30569;51.252;9.830;2023-08-24T06:54:57;21.10;99.90
44833;DHT22;30569;51.252;9.830;2023-08-24T06:57:23;22.50;99.90
44833;DHT22;30569;51.252;9.830;2023-08-24T06:59:48;21.20;99.90
44833;DHT22;30569;51.252;9.830;2023-08-24T07:02:14;21.20;99.90
44833;DHT22;30569;51.252;9.830;2023-08-24T07:04:40;21.30;99.90
44833;DHT22;30569;51.252;9.830;2023-08-24T07:07:06;22.10;99.90
44833;DHT22;30569;51.252;9.830;2023-08-24T07:09:32;21.50;99.90
44833;DHT22;30569;51.252;9.830;2023-08-24T07:11:57;21.50;99.90
44833;DHT22;30569;51.252;9.830;2023-08-24T07:14:23;23.20;99.90
44833;DHT22;30569;51.252;9.830;2023-08-24T07:16:48;21.60;99.90
44833;DHT22;30569;51.252;9.830;2023-08-24T07:21:40;21.80;99.90
44833;DHT22;30569;51.252;9.830;2023-08-24T07:24:05;24.40;99.90
44833;DHT22;30569;51.252;9.830;2023-08-24T07:26:31;21.90;99.90
44833;DHT22;30569;51.252;9.830;2023-08-24T07:28:57;22.20;99.90
44833;DHT22;30569;51.252;9.830;2023-08-24T07:31:22;22.20;99.90
44833;DHT22;30569;51.252;9.830;2023-08-24T07:33:48;22.30;99.90
44833;DHT22;30569;51.252;9.830;2023-08-24T07:36:14;22.00;99.90
44833;DHT22;30569;51.252;9.830;2023-08-24T07:38:39;22.40;99.90
44833;DHT22;30569;51.252;9.830;2023-08-24T07:41:05;22.30;99.90
44833;DHT22;30569;51.252;9.830;2023-08-24T07:43:32;22.40;99.90
44833;DHT22;30569;51.252;9.830;2023-08-24T07:45:58;22.40;99.90
44833;DHT22;30569;51.252;9.830;2023-08-24T07:48:24;24.50;99.90
44833;DHT22;30569;51.252;9.830;2023-08-24T07:50:50;22.20;99.90
44833;DHT22;30569;51.252;9.830;2023-08-24T07:53:16;22.20;99.90
44833;DHT22;30569;51.252;9.830;2023-08-24T07:55:42;22.20;99.90
44833;DHT22;30569;51.252;9.830;2023-08-24T07:58:08;22.20;99.90
44833;DHT22;30569;51.252;9.830;2023-08-24T08:00:34;22.20;99.90
44833;DHT22;30569;51.252;9.830;2023-08-24T08:03:00;22.20;99.90
44833;DHT22;30569;51.252;9.830;2023-08-24T08:05:25;22.30;99.90
44833;DHT22;30569;51.252;9.830;2023-08-24T08:10:17;22.30;99.90
44833;DHT22;30569;51.252;9.830;2023-08-24T08:12:43;22.20;99.90
44833;DHT22;30569;51.252;9.830;2023-08-24T08:15:09;22.20;99.90
44833;DHT22;30569;51.252;9.830;2023-08-24T08:17:34;22.10;99.90
44833;DHT22;30569;51.252;9.830;2023-08-24T08:20:00;21.90;99.90
44833;DHT22;30569;51.252;9.830;2023-08-24T08:22:25;22.00;99.90
44833;DHT22;30569;51.252;9.830;2023-08-24T08:24:51;23.50;99.90
44833;DHT22;30569;51.252;9.830;2023-08-24T08:27:20;22.20;99.90
44833;DHT22;30569;51.252;9.830;2023-08-24T08:29:45;22.20;99.90
44833;DHT22;30569;51.252;9.830;2023-08-24T08:32:11;22.30;99.90
44833;DHT22;30569;51.252;9.830;2023-08-24T08:34:37;22.30;99.90
44833;DHT22;30569;51.252;9.830;2023-08-24T08:37:03;23.50;99.90
44833;DHT22;30569;51.252;9.830;2023-08-24T08:39:29;22.50;99.90
44833;DHT22;30569;51.252;9.830;2023-08-24T08:41:55;22.60;99.90
44833;DHT22;30569;51.252;9.830;2023-08-24T08:44:22;22.80;99.90
44833;DHT22;30569;51.252;9.830;2023-08-24T08:46:49;22.80;99.90
44833;DHT22;30569;51.252;9.830;2023-08-24T08:49:16;22.90;99.90
44833;DHT22;30569;51.252;9.830;2023-08-24T08:51:42;23.00;99.90
44833;DHT22;30569;51.252;9.830;2023-08-24T08:54:08;23.40;99.90
44833;DHT22;30569;51.252;9.830;2023-08-24T08:56:33;23.10;99.90
44833;DHT22;30569;51.252;9.830;2023-08-24T08:59:00;24.60;99.90
44833;DHT22;30569;51.252;9.830;2023-08-24T09:01:27;23.30;99.90
44833;DHT22;30569;51.252;9.830;2023-08-24T09:06:20;23.40;99.90
44833;DHT22;30569;51.252;9.830;2023-08-24T09:08:46;23.40;99.90
44833;DHT22;30569;51.252;9.830;2023-08-24T09:11:13;23.50;99.90
44833;DHT22;30569;51.252;9.830;2023-08-24T09:13:39;23.70;99.90
44833;DHT22;30569;51.252;9.830;2023-08-24T09:16:06;23.50;99.90
44833;DHT22;30569;51.252;9.830;2023-08-24T09:18:39;23.50;99.90
44833;DHT22;30569;51.252;9.830;2023-08-24T09:21:13;23.60;99.90
44833;DHT22;30569;51.252;9.830;2023-08-24T09:23:55;23.60;99.90
44833;DHT22;30569;51.252;9.830;2023-08-24T09:26:35;23.60;99.90
44833;DHT22;30569;51.252;9.830;2023-08-24T09:29:14;23.60;99.80
44833;DHT22;30569;51.252;9.830;2023-08-24T09:31:40;23.80;99.90
44833;DHT22;30569;51.252;9.830;2023-08-24T09:34:06;23.80;99.90
44833;DHT22;30569;51.252;9.830;2023-08-24T09:36:33;24.20;99.30
44833;DHT22;30569;51.252;9.830;2023-08-24T09:39:00;24.10;99.50
44833;DHT22;30569;51.252;9.830;2023-08-24T09:41:39;24.50;98.40
44833;DHT22;30569;51.252;9.830;2023-08-24T09:44:06;24.70;98.00
44833;DHT22;30569;51.252;9.830;2023-08-24T09:46:31;26.80;96.30
44833;DHT22;30569;51.252;9.830;2023-08-24T09:48:57;28.90;93.30
44833;DHT22;30569;51.252;9.830;2023-08-24T09:51:26;32.90;86.50
44833;DHT22;30569;51.252;9.830;2023-08-24T09:53:57;34.00;78.30
44833;DHT22;30569;51.252;9.830;2023-08-24T09:56:25;34.20;72.70
44833;DHT22;30569;51.252;9.830;2023-08-24T09:58:54;34.40;72.40
44833;DHT22;30569;51.252;9.830;2023-08-24T10:01:20;34.10;68.30
44833;DHT22;30569;51.252;9.830;2023-08-24T10:03:50;34.50;68.60
44833;DHT22;30569;51.252;9.830;2023-08-24T10:06:19;35.60;69.80
44833;DHT22;30569;51.252;9.830;2023-08-24T10:08:58;36.00;70.00
44833;DHT22;30569;51.252;9.830;2023-08-24T10:11:28;36.00;69.10
44833;DHT22;30569;51.252;9.830;2023-08-24T10:14:21;36.00;68.90
44833;DHT22;30569;51.252;9.830;2023-08-24T10:16:49;35.50;68.90
44833;DHT22;30569;51.252;9.830;2023-08-24T10:19:16;35.00;69.80
44833;DHT22;30569;51.252;9.830;2023-08-24T10:21:43;34.00;70.60
44833;DHT22;30569;51.252;9.830;2023-08-24T10:24:09;33.60;71.00
44833;DHT22;30569;51.252;9.830;2023-08-24T10:26:37;33.20;71.10
44833;DHT22;30569;51.252;9.830;2023-08-24T10:29:05;32.50;73.00
44833;DHT22;30569;51.252;9.830;2023-08-24T10:33:57;31.70;74.30
44833;DHT22;30569;51.252;9.830;2023-08-24T10:36:24;31.40;75.10
44833;DHT22;30569;51.252;9.830;2023-08-24T10:38:49;30.90;74.00
44833;DHT22;30569;51.252;9.830;2023-08-24T10:41:15;30.50;79.60
44833;DHT22;30569;51.252;9.830;2023-08-24T10:43:41;30.50;81.30
44833;DHT22;30569;51.252;9.830;2023-08-24T10:46:14;30.20;81.40
44833;DHT22;30569;51.252;9.830;2023-08-24T10:51:17;29.50;84.50
44833;DHT22;30569;51.252;9.830;2023-08-24T10:53:52;29.30;86.20
44833;DHT22;30569;51.252;9.830;2023-08-24T10:56:18;29.30;86.70
44833;DHT22;30569;51.252;9.830;2023-08-24T10:58:45;29.20;87.70
44833;DHT22;30569;51.252;9.830;2023-08-24T11:01:17;28.90;87.50
44833;DHT22;30569;51.252;9.830;2023-08-24T11:03:55;28.60;83.80
44833;DHT22;30569;51.252;9.830;2023-08-24T11:06:22;28.70;83.80
44833;DHT22;30569;51.252;9.830;2023-08-24T11:11:24;28.30;83.50
44833;DHT22;30569;51.252;9.830;2023-08-24T11:14:15;28.20;84.30
44833;DHT22;30569;51.252;9.830;2023-08-24T11:16:48;28.00;90.00
44833;DHT22;30569;51.252;9.830;2023-08-24T11:19:15;28.10;86.80
44833;DHT22;30569;51.252;9.830;2023-08-24T11:21:43;28.10;88.40
44833;DHT22;30569;51.252;9.830;2023-08-24T11:24:13;28.30;90.60
44833;DHT22;30569;51.252;9.830;2023-08-24T11:26:42;28.50;90.10
44833;DHT22;30569;51.252;9.830;2023-08-24T11:29:08;28.50;90.10
44833;DHT22;30569;51.252;9.830;2023-08-24T11:31:34;28.60;87.70
44833;DHT22;30569;51.252;9.830;2023-08-24T11:36:26;28.50;85.70
44833;DHT22;30569;51.252;9.830;2023-08-24T11:38:58;28.60;87.50
44833;DHT22;30569;51.252;9.830;2023-08-24T11:41:24;28.60;88.10
44833;DHT22;30569;51.252;9.830;2023-08-24T11:43:59;28.70;87.70
44833;DHT22;30569;51.252;9.830;2023-08-24T11:46:25;28.70;87.10
44833;DHT22;30569;51.252;9.830;2023-08-24T11:48:51;29.00;90.00
44833;DHT22;30569;51.252;9.830;2023-08-24T11:51:17;28.90;90.00
44833;DHT22;30569;51.252;9.830;2023-08-24T11:53:44;28.90;90.00
44833;DHT22;30569;51.252;9.830;2023-08-24T11:56:10;28.60;85.10
44833;DHT22;30569;51.252;9.830;2023-08-24T11:58:38;28.90;85.80
44833;DHT22;30569;51.252;9.830;2023-08-24T12:01:04;28.40;82.30
44833;DHT22;30569;51.252;9.830;2023-08-24T12:03:31;28.40;86.30
44833;DHT22;30569;51.252;9.830;2023-08-24T12:06:02;28.50;82.40
44833;DHT22;30569;51.252;9.830;2023-08-24T12:08:38;28.50;83.10
44833;DHT22;30569;51.252;9.830;2023-08-24T12:11:19;28.60;85.70
44833;DHT22;30569;51.252;9.830;2023-08-24T12:13:48;29.00;83.80
44833;DHT22;30569;51.252;9.830;2023-08-24T12:16:15;29.00;83.70
44833;DHT22;30569;51.252;9.830;2023-08-24T12:18:51;28.50;79.30
44833;DHT22;30569;51.252;9.830;2023-08-24T12:26:18;28.30;77.00
44833;DHT22;30569;51.252;9.830;2023-08-24T12:28:43;28.40;78.00
44833;DHT22;30569;51.252;9.830;2023-08-24T12:31:14;28.50;80.00
44833;DHT22;30569;51.252;9.830;2023-08-24T12:33:39;28.50;81.80
44833;DHT22;30569;51.252;9.830;2023-08-24T12:41:00;28.90;79.70
44833;DHT22;30569;51.252;9.830;2023-08-24T12:43:25;28.80;78.50
44833;DHT22;30569;51.252;9.830;2023-08-24T12:48:17;28.80;81.00
44833;DHT22;30569;51.252;9.830;2023-08-24T12:55:39;28.80;83.70
44833;DHT22;30569;51.252;9.830;2023-08-24T12:58:06;28.80;84.30
44833;DHT22;30569;51.252;9.830;2023-08-24T13:00:31;29.00;79.30
44833;DHT22;30569;51.252;9.830;2023-08-24T13:05:24;28.80;76.90
44833;DHT22;30569;51.252;9.830;2023-08-24T13:07:50;28.90;77.60
44833;DHT22;30569;51.252;9.830;2023-08-24T13:10:17;28.50;78.80
44833;DHT22;30569;51.252;9.830;2023-08-24T13:15:10;28.80;77.20
44833;DHT22;30569;51.252;9.830;2023-08-24T13:20:03;28.60;75.30
44833;DHT22;30569;51.252;9.830;2023-08-24T13:22:29;28.00;76.90
44833;DHT22;30569;51.252;9.830;2023-08-24T13:24:55;28.20;81.70
44833;DHT22;30569;51.252;9.830;2023-08-24T13:27:20;28.50;81.30
44833;DHT22;30569;51.252;9.830;2023-08-24T13:29:46;28.80;76.00
44833;DHT22;30569;51.252;9.830;2023-08-24T13:32:11;28.60;78.40
44833;DHT22;30569;51.252;9.830;2023-08-24T13:39:29;28.30;79.20
44833;DHT22;30569;51.252;9.830;2023-08-24T13:41:59;28.90;79.30
44833;DHT22;30569;51.252;9.830;2023-08-24T13:44:24;29.10;79.80
44833;DHT22;30569;51.252;9.830;2023-08-24T13:46:51;29.30;81.50
44833;DHT22;30569;51.252;9.830;2023-08-24T13:49:20;29.60;81.20
44833;DHT22;30569;51.252;9.830;2023-08-24T13:51:46;29.70;83.30
44833;DHT22;30569;51.252;9.830;2023-08-24T13:54:16;29.70;82.80
44833;DHT22;30569;51.252;9.830;2023-08-24T13:56:43;29.80;82.20
44833;DHT22;30569;51.252;9.830;2023-08-24T13:59:09;29.90;81.90
44833;DHT22;30569;51.252;9.830;2023-08-24T14:01:34;29.90;79.00
44833;DHT22;30569;51.252;9.830;2023-08-24T14:06:31;30.00;80.20
44833;DHT22;30569;51.252;9.830;2023-08-24T14:08:57;30.00;80.30
44833;DHT22;30569;51.252;9.830;2023-08-24T14:11:23;30.00;81.90
44833;DHT22;30569;51.252;9.830;2023-08-24T14:13:49;30.10;84.80
44833;DHT22;30569;51.252;9.830;2023-08-24T14:16:14;29.90;82.70
44833;DHT22;30569;51.252;9.830;2023-08-24T14:18:40;29.80;82.50
44833;DHT22;30569;51.252;9.830;2023-08-24T14:21:05;29.50;82.40
44833;DHT22;30569;51.252;9.830;2023-08-24T14:23:31;29.60;85.30
44833;DHT22;30569;51.252;9.830;2023-08-24T14:25:57;29.30;80.60
44833;DHT22;30569;51.252;9.830;2023-08-24T14:28:22;29.50;82.40
44833;DHT22;30569;51.252;9.830;2023-08-24T14:30:52;29.30;81.10
44833;DHT22;30569;51.252;9.830;2023-08-24T14:33:17;29.20;82.50
44833;DHT22;30569;51.252;9.830;2023-08-24T14:35:53;29.00;81.40
44833;DHT22;30569;51.252;9.830;2023-08-24T14:38:18;29.10;86.90
44833;DHT22;30569;51.252;9.830;2023-08-24T14:40:44;29.10;83.70
44833;DHT22;30569;51.252;9.830;2023-08-24T14:43:10;29.10;84.60
44833;DHT22;30569;51.252;9.830;2023-08-24T14:45:35;28.90;82.30
44833;DHT22;30569;51.252;9.830;2023-08-24T14:48:01;28.50;86.00
44833;DHT22;30569;51.252;9.830;2023-08-24T14:52:53;28.20;83.20
44833;DHT22;30569;51.252;9.830;2023-08-24T14:55:18;28.30;88.10
44833;DHT22;30569;51.252;9.830;2023-08-24T14:57:44;28.90;87.80
44833;DHT22;30569;51.252;9.830;2023-08-24T15:00:10;28.70;89.00
44833;DHT22;30569;51.252;9.830;2023-08-24T15:02:36;28.70;89.30
44833;DHT22;30569;51.252;9.830;2023-08-24T15:05:04;28.60;87.00
44833;DHT22;30569;51.252;9.830;2023-08-24T15:07:31;28.70;84.10
44833;DHT22;30569;51.252;9.830;2023-08-24T15:09:56;28.30;86.00
44833;DHT22;30569;51.252;9.830;2023-08-24T15:12:22;28.30;84.80
44833;DHT22;30569;51.252;9.830;2023-08-24T15:15:01;28.50;88.50
44833;DHT22;30569;51.252;9.830;2023-08-24T15:17:30;28.60;87.90
44833;DHT22;30569;51.252;9.830;2023-08-24T15:19:56;28.40;86.10
44833;DHT22;30569;51.252;9.830;2023-08-24T15:22:25;28.40;86.20
44833;DHT22;30569;51.252;9.830;2023-08-24T15:24:54;28.40;87.70
44833;DHT22;30569;51.252;9.830;2023-08-24T15:27:20;28.70;89.40
44833;DHT22;30569;51.252;9.830;2023-08-24T15:29:46;28.60;89.60
44833;DHT22;30569;51.252;9.830;2023-08-24T15:32:11;28.60;88.60
44833;DHT22;30569;51.252;9.830;2023-08-24T15:34:38;28.60;88.10
44833;DHT22;30569;51.252;9.830;2023-08-24T15:37:04;28.70;90.30
44833;DHT22;30569;51.252;9.830;2023-08-24T15:39:36;28.50;90.30
44833;DHT22;30569;51.252;9.830;2023-08-24T15:42:02;28.30;90.10
44833;DHT22;30569;51.252;9.830;2023-08-24T15:49:20;27.80;92.30
44833;DHT22;30569;51.252;9.830;2023-08-24T15:54:14;27.80;91.90
44833;DHT22;30569;51.252;9.830;2023-08-24T15:56:39;28.00;92.10
44833;DHT22;30569;51.252;9.830;2023-08-24T15:59:07;28.00;92.20
44833;DHT22;30569;51.252;9.830;2023-08-24T16:01:33;28.00;91.40
44833;DHT22;30569;51.252;9.830;2023-08-24T16:03:58;28.00;91.40
44833;DHT22;30569;51.252;9.830;2023-08-24T16:06:24;28.00;91.60
44833;DHT22;30569;51.252;9.830;2023-08-24T16:08:49;28.20;91.60
44833;DHT22;30569;51.252;9.830;2023-08-24T16:11:15;28.00;91.20
44833;DHT22;30569;51.252;9.830;2023-08-24T16:16:06;28.00;91.70
44833;DHT22;30569;51.252;9.830;2023-08-24T16:18:32;28.00;91.80
44833;DHT22;30569;51.252;9.830;2023-08-24T16:20:57;27.90;91.70
44833;DHT22;30569;51.252;9.830;2023-08-24T16:23:23;27.90;92.10
44833;DHT22;30569;51.252;9.830;2023-08-24T16:25:49;27.80;91.80
44833;DHT22;30569;51.252;9.830;2023-08-24T16:30:41;27.50;93.30
44833;DHT22;30569;51.252;9.830;2023-08-24T16:33:06;27.60;93.70
44833;DHT22;30569;51.252;9.830;2023-08-24T16:37:58;27.40;94.10
44833;DHT22;30569;51.252;9.830;2023-08-24T16:42:49;27.40;95.10
44833;DHT22;30569;51.252;9.830;2023-08-24T16:45:15;27.40;95.40
44833;DHT22;30569;51.252;9.830;2023-08-24T16:47:40;27.40;95.10
44833;DHT22;30569;51.252;9.830;2023-08-24T16:50:06;27.30;94.40
44833;DHT22;30569;51.252;9.830;2023-08-24T16:52:32;27.20;94.40
44833;DHT22;30569;51.252;9.830;2023-08-24T16:54:58;27.40;95.20
44833;DHT22;30569;51.252;9.830;2023-08-24T16:57:23;27.20;95.30
44833;DHT22;30569;51.252;9.830;2023-08-24T16:59:49;27.20;96.00
44833;DHT22;30569;51.252;9.830;2023-08-24T17:04:40;27.10;95.30
44833;DHT22;30569;51.252;9.830;2023-08-24T17:07:06;27.10;95.70
44833;DHT22;30569;51.252;9.830;2023-08-24T17:09:32;26.70;95.50
44833;DHT22;30569;51.252;9.830;2023-08-24T17:14:23;26.90;95.20